BOX225 LSZH-EDDF
Flight info
| Callsign | BOX225 |
|---|---|
| Flight time | N/A |
| Altitude | 20000 |
| Route | DEGES Z1 SUDEN T164 KOVAN T163 SPESA SPESA4C |
| Aircraft | MD11/H-SDE1E2E3FGHIJ2J3J4J5M1RWXY/LB1D1 |
Departure
| Time | 2026-04-30 12:59 |
|---|---|
| Airport | Zürich Airport (LSZH) |
Arrival
| Time | N/A |
|---|---|
| Airport | Frankfurt Main Airport (EDDF) |
| Time | Latitude | Longitude | Altitude | Speed | Heading |
|---|---|---|---|---|---|
| 2026-04-30 12:41 | 47.46326 | 8.55201 | 1404 ft | 0 kts | 6° |
| 2026-04-30 12:49 | 47.46316 | 8.55200 | 1414 ft | 2 kts | 354° |
| 2026-04-30 12:49 | 47.46299 | 8.55204 | 1410 ft | 2 kts | 338° |
| 2026-04-30 12:50 | 47.46285 | 8.55216 | 1414 ft | 2 kts | 309° |
| 2026-04-30 12:50 | 47.46277 | 8.55237 | 1414 ft | 2 kts | 287° |
| 2026-04-30 12:50 | 47.46274 | 8.55258 | 1414 ft | 1 kts | 277° |
| 2026-04-30 12:50 | 47.46274 | 8.55264 | 1414 ft | 0 kts | 276° |
| 2026-04-30 12:52 | 47.46274 | 8.55254 | 1414 ft | 3 kts | 276° |
| 2026-04-30 12:53 | 47.46276 | 8.55227 | 1414 ft | 3 kts | 276° |
| 2026-04-30 12:53 | 47.46278 | 8.55203 | 1413 ft | 2 kts | 276° |
| 2026-04-30 12:53 | 47.46281 | 8.55159 | 1412 ft | 10 kts | 276° |
| 2026-04-30 12:53 | 47.46290 | 8.55048 | 1405 ft | 11 kts | 274° |
| 2026-04-30 12:54 | 47.46280 | 8.54986 | 1411 ft | 4 kts | 248° |
| 2026-04-30 12:54 | 47.46273 | 8.54970 | 1411 ft | 3 kts | 231° |
| 2026-04-30 12:54 | 47.46251 | 8.54950 | 1411 ft | 4 kts | 200° |
| 2026-04-30 12:54 | 47.46230 | 8.54951 | 1407 ft | 2 kts | 168° |
| 2026-04-30 12:55 | 47.46182 | 8.54976 | 1407 ft | 10 kts | 160° |
| 2026-04-30 12:55 | 47.46125 | 8.55011 | 1409 ft | 8 kts | 157° |
| 2026-04-30 12:55 | 47.46085 | 8.55035 | 1409 ft | 5 kts | 158° |
| 2026-04-30 12:55 | 47.46042 | 8.55046 | 1405 ft | 9 kts | 178° |
| 2026-04-30 12:56 | 47.45968 | 8.55006 | 1407 ft | 13 kts | 210° |
| 2026-04-30 12:56 | 47.45923 | 8.54929 | 1410 ft | 9 kts | 253° |
| 2026-04-30 12:56 | 47.45921 | 8.54850 | 1411 ft | 10 kts | 272° |
| 2026-04-30 12:56 | 47.45928 | 8.54709 | 1409 ft | 17 kts | 276° |
| 2026-04-30 12:57 | 47.45947 | 8.54492 | 1408 ft | 25 kts | 277° |
| 2026-04-30 12:57 | 47.45966 | 8.54232 | 1414 ft | 27 kts | 276° |
| 2026-04-30 12:57 | 47.45981 | 8.53999 | 1410 ft | 17 kts | 276° |
| 2026-04-30 12:57 | 47.45974 | 8.53841 | 1410 ft | 14 kts | 248° |
| 2026-04-30 12:58 | 47.45949 | 8.53811 | 1412 ft | 2 kts | 195° |
| 2026-04-30 12:58 | 47.45935 | 8.53811 | 1405 ft | 6 kts | 179° |
| 2026-04-30 12:58 | 47.45890 | 8.53876 | 1411 ft | 13 kts | 109° |
| 2026-04-30 12:58 | 47.45858 | 8.54254 | 1412 ft | 83 kts | 96° |
| 2026-04-30 12:59 | 47.45778 | 8.55594 | 1415 ft | 175 kts | 91° |
| 2026-04-30 12:59 | 47.45599 | 8.57561 | 1686 ft | 211 kts | 98° |
| 2026-04-30 12:59 | 47.45288 | 8.59601 | 2086 ft | 185 kts | 98° |
| 2026-04-30 12:59 | 47.45143 | 8.60651 | 2141 ft | 169 kts | 95° |
| 2026-04-30 13:00 | 47.44979 | 8.62181 | 2294 ft | 270 kts | 92° |